createdAt,value
2018-08-23T00:01:47.326Z,17.67
2018-08-23T00:05:52.152Z,18.00
2018-08-23T00:09:55.928Z,17.67
2018-08-23T00:13:59.637Z,18.23
2018-08-23T00:18:06.275Z,19.50
2018-08-23T00:22:14.152Z,19.43
2018-08-23T00:26:17.909Z,20.47
2018-08-23T00:30:24.856Z,22.07
2018-08-23T00:34:29.948Z,20.73
2018-08-23T00:38:33.616Z,18.67
2018-08-23T00:42:37.352Z,22.40
2018-08-23T00:46:41.089Z,22.43
2018-08-23T00:50:48.283Z,20.63
2018-08-23T00:54:52.116Z,19.90
2018-08-23T00:59:01.966Z,21.03
2018-08-23T01:03:05.708Z,21.30
2018-08-23T01:07:09.473Z,18.93
2018-08-23T01:11:13.205Z,22.17
2018-08-23T01:15:16.857Z,21.27
2018-08-23T01:19:25.651Z,21.40
2018-08-23T01:23:29.452Z,20.83
2018-08-23T01:27:38.220Z,20.77
2018-08-23T01:31:41.928Z,22.53
2018-08-23T01:35:46.963Z,22.13
2018-08-23T01:39:50.601Z,21.80
2018-08-23T01:43:54.351Z,21.87
2018-08-23T01:47:58.135Z,19.80
2018-08-23T01:52:01.843Z,23.30
2018-08-23T01:56:06.048Z,24.43
2018-08-23T02:00:10.449Z,23.83
2018-08-23T02:04:14.216Z,23.70
2018-08-23T02:08:17.916Z,23.43
2018-08-23T02:12:21.853Z,25.03
2018-08-23T02:16:25.569Z,22.47
2018-08-23T02:20:29.326Z,23.10
2018-08-23T02:24:35.921Z,22.37
2018-08-23T02:28:39.705Z,24.20
2018-08-23T02:32:43.386Z,23.23
2018-08-23T02:36:47.085Z,22.37
2018-08-23T02:40:50.812Z,23.33
2018-08-23T02:44:56.175Z,24.00
2018-08-23T02:48:59.866Z,24.40
2018-08-23T02:53:36.057Z,24.80
2018-08-23T02:57:48.622Z,23.20
2018-08-23T03:01:52.451Z,22.93
2018-08-23T03:05:56.116Z,27.40
2018-08-23T03:10:00.148Z,27.87
2018-08-23T03:14:03.952Z,29.47
2018-08-23T03:18:07.662Z,32.07
2018-08-23T03:22:11.417Z,31.50
2018-08-23T03:26:15.230Z,30.50
2018-08-23T03:30:19.675Z,26.70
2018-08-23T03:34:23.388Z,27.17
2018-08-23T03:38:27.157Z,26.47
2018-08-23T03:42:30.830Z,28.57
2018-08-23T03:46:46.368Z,30.90
2018-08-23T03:50:52.459Z,28.97
2018-08-23T03:55:01.429Z,27.37
2018-08-23T03:59:05.251Z,26.47
2018-08-23T04:03:12.359Z,27.50
2018-08-23T04:07:16.776Z,24.97
2018-08-23T04:11:20.861Z,25.03
2018-08-23T04:15:27.570Z,25.80
2018-08-23T04:19:32.560Z,24.47
2018-08-23T04:23:36.248Z,24.40
2018-08-23T04:27:39.978Z,24.33
2018-08-23T04:31:43.756Z,25.37
2018-08-23T04:35:47.468Z,26.23
2018-08-23T04:39:56.555Z,24.37
2018-08-23T04:44:18.512Z,23.63
2018-08-23T04:48:22.189Z,26.17
2018-08-23T04:52:25.889Z,28.57
2018-08-23T04:56:29.837Z,26.00
2018-08-23T05:00:33.607Z,26.17
2018-08-23T05:04:37.344Z,24.17
2018-08-23T05:08:41.002Z,22.77
2018-08-23T05:12:44.693Z,25.87
2018-08-23T05:16:48.392Z,25.47
2018-08-23T05:20:52.088Z,25.20
2018-08-23T05:25:03.904Z,26.13
2018-08-23T05:29:08.713Z,27.87
2018-08-23T05:33:14.354Z,25.23
2018-08-23T05:37:18.176Z,26.70
2018-08-23T05:41:21.900Z,25.33
2018-08-23T05:45:35.329Z,26.17
2018-08-23T05:49:39.137Z,33.60
2018-08-23T05:53:45.186Z,34.13
2018-08-23T05:57:49.098Z,36.13
2018-08-23T06:01:52.857Z,35.57
2018-08-23T06:05:56.875Z,36.93
2018-08-23T06:10:00.578Z,37.53
2018-08-23T06:14:04.292Z,38.23
2018-08-23T06:18:08.121Z,40.47
2018-08-23T06:22:11.925Z,38.87
2018-08-23T06:26:15.644Z,39.70
2018-08-23T06:30:19.441Z,37.20
2018-08-23T06:34:24.192Z,40.13
2018-08-23T06:38:27.926Z,42.00
2018-08-23T06:42:45.809Z,40.50
2018-08-23T06:46:49.655Z,41.50
2018-08-23T06:50:57.495Z,39.23
2018-08-23T06:55:01.509Z,40.70
2018-08-23T06:59:05.323Z,39.90
2018-08-23T07:03:09.068Z,38.83
2018-08-23T07:07:17.813Z,38.80
2018-08-23T07:11:22.085Z,38.57
2018-08-23T07:15:25.913Z,37.20
2018-08-23T07:19:31.053Z,36.90
2018-08-23T07:23:38.784Z,34.70
2018-08-23T07:27:42.661Z,36.13
2018-08-23T07:32:01.917Z,36.07
2018-08-23T07:36:18.676Z,33.57
2018-08-23T07:40:24.406Z,32.90
2018-08-23T07:44:28.096Z,31.63
2018-08-23T07:48:31.849Z,31.87
2018-08-23T07:52:36.597Z,31.10
2018-08-23T07:56:40.308Z,31.93
2018-08-23T08:00:44.503Z,27.77
2018-08-23T08:04:48.192Z,28.57
2018-08-23T08:08:52.788Z,27.50
2018-08-23T08:12:56.457Z,27.73
2018-08-23T08:17:09.253Z,28.83
2018-08-23T08:21:17.010Z,26.97
2018-08-23T08:25:20.805Z,26.80
2018-08-23T08:29:29.838Z,28.30
2018-08-23T08:33:34.132Z,27.63
2018-08-23T08:37:37.896Z,25.93
2018-08-23T08:41:41.549Z,25.37
2018-08-23T08:45:45.224Z,25.57
2018-08-23T08:49:48.900Z,24.37
2018-08-23T08:53:53.507Z,26.90
2018-08-23T08:57:57.194Z,29.43
2018-08-23T09:02:00.990Z,30.27
2018-08-23T09:06:06.573Z,29.97
2018-08-23T09:10:10.283Z,30.07
2018-08-23T09:14:14.098Z,31.13
2018-08-23T09:18:23.214Z,30.57
2018-08-23T09:22:26.896Z,30.03
2018-08-23T09:26:35.949Z,30.47
2018-08-23T09:30:39.803Z,32.27
2018-08-23T09:34:43.623Z,31.27
2018-08-23T09:38:47.336Z,33.90
2018-08-23T09:42:51.050Z,35.03
2018-08-23T09:46:59.575Z,34.90
2018-08-23T09:51:16.646Z,33.73
2018-08-23T09:55:21.412Z,35.57
2018-08-23T09:59:25.589Z,35.83
2018-08-23T10:03:35.189Z,38.93
2018-08-23T10:07:43.980Z,38.63
2018-08-23T10:11:53.016Z,40.30
2018-08-23T10:16:02.086Z,35.53
2018-08-23T10:20:11.162Z,35.60
2018-08-23T10:24:20.112Z,37.37
2018-08-23T10:28:55.658Z,34.77
2018-08-23T10:32:59.329Z,36.50
2018-08-23T10:37:03.028Z,33.30
2018-08-23T10:41:06.720Z,31.00
2018-08-23T10:45:10.425Z,29.60
2018-08-23T10:49:14.067Z,33.13
2018-08-23T10:53:18.264Z,30.97
2018-08-23T10:57:21.943Z,30.37
2018-08-23T11:01:25.625Z,31.17
2018-08-23T11:05:29.324Z,27.57
2018-08-23T11:09:38.326Z,26.07
2018-08-23T11:13:46.187Z,28.03
2018-08-23T11:17:55.243Z,33.73
2018-08-23T11:21:58.952Z,27.97
2018-08-23T11:26:02.804Z,25.30
2018-08-23T11:30:06.532Z,30.63
2018-08-23T11:34:10.237Z,28.73
2018-08-23T11:38:13.978Z,29.30
2018-08-23T11:42:17.701Z,28.30
2018-08-23T11:46:22.433Z,30.13
2018-08-23T11:50:26.133Z,25.20
2018-08-23T11:54:29.848Z,23.83
2018-08-23T11:58:33.650Z,23.30
2018-08-23T12:02:37.457Z,16.90
2018-08-23T12:06:41.195Z,21.60
2018-08-23T12:10:44.908Z,17.10
2018-08-23T12:14:52.871Z,20.07
2018-08-23T12:18:56.646Z,17.53
2018-08-23T12:23:00.390Z,18.07
2018-08-23T12:27:04.154Z,13.43
2018-08-23T12:31:07.985Z,10.97
2018-08-23T12:35:11.718Z,10.23
2018-08-23T12:39:20.799Z,11.60
2018-08-23T12:43:56.484Z,11.37
2018-08-23T12:48:00.310Z,6.73
2018-08-23T12:52:04.038Z,6.90
2018-08-23T12:56:07.814Z,7.43
2018-08-23T13:00:11.537Z,6.73
2018-08-23T13:04:15.384Z,6.30
2018-08-23T13:08:19.138Z,5.77
2018-08-23T13:12:22.877Z,5.73
2018-08-23T13:16:26.585Z,5.77
2018-08-23T13:20:30.327Z,5.50
2018-08-23T13:24:38.249Z,6.07
2018-08-23T13:28:42.019Z,6.17
2018-08-23T13:32:45.800Z,6.50
2018-08-23T13:36:49.590Z,5.80
2018-08-23T13:40:53.242Z,4.87
2018-08-23T13:44:56.984Z,5.33
2018-08-23T13:49:00.797Z,5.03
2018-08-23T13:53:04.540Z,6.03
2018-08-23T13:57:08.313Z,5.20
2018-08-23T14:01:12.069Z,5.70
2018-08-23T14:05:15.912Z,6.10
2018-08-23T14:09:19.642Z,5.50
2018-08-23T14:13:23.378Z,6.23
2018-08-23T14:17:27.617Z,5.87
2018-08-23T14:21:31.327Z,6.43
2018-08-23T14:25:35.144Z,7.83
2018-08-23T14:29:38.954Z,7.57
2018-08-23T14:33:42.648Z,7.13
2018-08-23T14:37:46.397Z,8.20
2018-08-23T14:41:50.214Z,9.47
2018-08-23T14:45:58.177Z,8.67
2018-08-23T14:50:01.912Z,8.80
2018-08-23T14:54:11.532Z,8.10
2018-08-23T14:58:15.263Z,10.00
2018-08-23T15:02:18.997Z,10.03
2018-08-23T15:06:29.080Z,9.40
2018-08-23T15:10:32.832Z,10.20
2018-08-23T15:14:36.667Z,11.20
2018-08-23T15:18:40.341Z,11.13
2018-08-23T15:22:44.076Z,12.23
2018-08-23T15:26:48.442Z,9.83
2018-08-23T15:30:52.012Z,9.17
2018-08-23T15:34:55.887Z,9.57
2018-08-23T15:38:59.601Z,9.53
2018-08-23T15:43:03.321Z,8.03
2018-08-23T15:47:07.133Z,8.90
2018-08-23T15:51:10.873Z,8.20
2018-08-23T15:55:14.726Z,8.37
2018-08-23T15:59:18.466Z,8.33
2018-08-23T16:03:22.162Z,7.43
2018-08-23T16:07:25.927Z,6.63
2018-08-23T16:11:29.720Z,6.47
2018-08-23T16:15:40.152Z,6.23
2018-08-23T16:19:49.038Z,5.13
2018-08-23T16:23:52.727Z,5.77
2018-08-23T16:27:56.478Z,4.93
2018-08-23T16:32:00.282Z,5.30
2018-08-23T16:36:04.016Z,5.47
2018-08-23T16:40:07.745Z,5.40
2018-08-23T16:44:11.651Z,4.80
2018-08-23T16:48:15.350Z,4.33
2018-08-23T16:52:19.072Z,4.80
2018-08-23T16:56:22.820Z,4.97
2018-08-23T17:00:26.625Z,4.73
2018-08-23T17:04:35.576Z,4.20
2018-08-23T17:08:39.248Z,3.93
2018-08-23T17:12:43.004Z,4.57
2018-08-23T17:16:51.980Z,5.23
2018-08-23T17:20:55.681Z,4.50
2018-08-23T17:24:59.380Z,4.77
2018-08-23T17:29:03.124Z,4.47
2018-08-23T17:33:07.046Z,4.70
2018-08-23T17:37:10.808Z,4.97
2018-08-23T17:41:14.533Z,4.50
2018-08-23T17:45:18.263Z,5.17
2018-08-23T17:49:22.030Z,5.53
2018-08-23T17:53:25.715Z,5.60
2018-08-23T17:57:29.420Z,5.30
2018-08-23T18:01:34.041Z,5.40
2018-08-23T18:05:37.769Z,5.70
2018-08-23T18:09:41.454Z,8.87
2018-08-23T18:13:45.177Z,9.83
2018-08-23T18:17:48.978Z,12.20
2018-08-23T18:21:52.752Z,11.67
2018-08-23T18:25:56.516Z,12.57
2018-08-23T18:30:00.197Z,11.13
2018-08-23T18:34:04.380Z,11.80
2018-08-23T18:38:08.172Z,11.93
2018-08-23T18:42:11.889Z,11.60
2018-08-23T18:46:15.581Z,11.30
2018-08-23T18:50:19.311Z,12.43
2018-08-23T18:54:23.095Z,12.10
2018-08-23T18:58:26.889Z,12.30
2018-08-23T19:02:30.616Z,13.07
2018-08-23T19:06:34.351Z,11.90
2018-08-23T19:11:42.021Z,10.70
2018-08-23T19:15:51.157Z,11.53
2018-08-23T19:19:55.057Z,11.97
2018-08-23T19:23:58.806Z,11.57
2018-08-23T19:28:02.553Z,12.03
2018-08-23T19:32:06.295Z,11.20
2018-08-23T19:36:10.218Z,11.10
2018-08-23T19:40:13.945Z,11.50
2018-08-23T19:44:17.657Z,10.00
2018-08-23T19:48:21.393Z,9.97
2018-08-23T19:52:25.117Z,10.00
2018-08-23T19:56:28.822Z,9.97
2018-08-23T20:00:32.561Z,9.87
2018-08-23T20:04:36.394Z,10.00
2018-08-23T20:08:40.152Z,10.03
2018-08-23T20:12:43.856Z,10.43
2018-08-23T20:16:47.520Z,9.73
2018-08-23T20:20:51.202Z,10.00
2018-08-23T20:24:54.943Z,8.83
2018-08-23T20:28:58.676Z,10.00
2018-08-23T20:33:02.376Z,9.67
2018-08-23T20:37:06.151Z,11.00
2018-08-23T20:41:09.905Z,10.27
2018-08-23T20:45:13.844Z,9.90
2018-08-23T20:49:17.555Z,10.10
2018-08-23T20:53:21.248Z,11.23
2018-08-23T20:57:24.909Z,10.97
2018-08-23T21:01:29.124Z,9.10
2018-08-23T21:05:32.829Z,9.50
2018-08-23T21:09:36.566Z,9.90
2018-08-23T21:13:40.264Z,10.40
2018-08-23T21:17:43.953Z,10.07
2018-08-23T21:21:47.634Z,10.43
2018-08-23T21:25:51.365Z,9.83
2018-08-23T21:29:55.107Z,10.77
2018-08-23T21:33:58.795Z,9.30
2018-08-23T21:38:02.457Z,9.97
2018-08-23T21:42:06.234Z,10.70
2018-08-23T21:46:09.929Z,10.10
2018-08-23T21:50:13.662Z,11.07
2018-08-23T21:54:17.351Z,9.47
2018-08-23T21:58:21.030Z,10.40
2018-08-23T22:02:24.732Z,9.50
2018-08-23T22:06:28.509Z,9.87
2018-08-23T22:10:32.212Z,11.30
2018-08-23T22:14:35.907Z,11.07
2018-08-23T22:18:39.664Z,12.23
2018-08-23T22:22:43.343Z,11.40
2018-08-23T22:26:47.223Z,10.30
2018-08-23T22:30:50.800Z,11.37
2018-08-23T22:34:54.615Z,10.20
2018-08-23T22:38:58.268Z,10.30
2018-08-23T22:43:01.962Z,9.73
2018-08-23T22:47:05.818Z,10.33
2018-08-23T22:51:09.532Z,11.27
2018-08-23T22:55:13.287Z,11.03
2018-08-23T22:59:16.949Z,10.53
2018-08-23T23:03:25.832Z,10.97
2018-08-23T23:07:29.530Z,10.80
2018-08-23T23:11:33.303Z,9.87
2018-08-23T23:15:36.997Z,9.40
2018-08-23T23:19:40.687Z,10.60
2018-08-23T23:23:44.394Z,10.30
2018-08-23T23:27:48.141Z,10.33
2018-08-23T23:31:51.837Z,8.90
2018-08-23T23:35:55.572Z,9.93
2018-08-23T23:39:59.234Z,10.63
2018-08-23T23:44:02.924Z,10.93
2018-08-23T23:48:06.644Z,9.80
2018-08-23T23:52:10.433Z,9.83
2018-08-23T23:56:14.175Z,9.50
